KD3TB Weather Reports


Display with metric or nautical units.
time (UTC)temp
F
wind
direction
speed
MPH
gust
MPH
rain 1hr
in
rain 24hr
in
rain mn
in
humidity
%
barometer
mb
20210726001544 82 278 0.0 0.0 0.00 0.04 0.04 72 1007.6
20210726000024 83 278 0.0 0.0 0.00 0.04 0.04 69 1007.6
20210725234527 83 278 0.0 0.0 0.00 0.04 0.04 68 1007.6
20210725233103 84 278 0.0 2.0 0.00 0.04 0.04 66 1007.6
20210725231529 84 280 0.0 3.0 0.00 0.04 0.04 67 1007.6
20210725230022 84 281 0.0 1.0 0.00 0.04 0.04 68 1007.4
20210725224606 84 281 0.0 1.0 0.00 0.04 0.04 69 1007.4
20210725223054 84 281 0.0 1.0 0.00 0.04 0.04 69 1007.6
20210725221519 83 281 0.0 2.0 0.00 0.04 0.04 69 1007.6
20210725220028 82 295 0.0 1.0 0.00 0.04 0.04 73 1007.6
20210725214517 82 296 0.0 1.0 0.00 0.04 0.04 74 1007.7
20210725213035 81 296 0.0 2.0 0.00 0.04 0.04 77 1007.8
20210725211540 80 296 0.0 0.0 0.00 0.04 0.04 84 1008.0
20210725210014 81 296 0.0 0.0 0.00 0.04 0.04 82 1008.2
20210725204555 82 296 0.0 0.0 0.04 0.04 0.04 83 1008.2
20210725203030 81 296 0.0 0.0 0.04 0.04 0.04 79 1008.3
20210725201551 80 296 0.0 0.0 0.04 0.04 0.04 83 1008.4
20210725200016 81 296 0.0 4.0 0.04 0.04 0.04 79 1008.2
20210725194524 84 303 0.0 0.0 0.00 0.00 0.00 69 1008.2
20210725193125 86 303 0.0 2.0 0.00 0.00 0.00 61 1008.3
20210725191521 86 279 0.0 1.0 0.00 0.00 0.00 60 1008.6
20210725190016 85 287 0.0 1.0 0.00 0.00 0.00 61 1008.7
20210725184543 86 291 0.0 1.0 0.00 0.00 0.00 60 1008.7
20210725183018 86 293 0.0 4.0 0.00 0.00 0.00 59 1008.7
20210725181512 85 320 0.0 1.0 0.00 0.00 0.00 60 1008.8
20210725180010 85 269 0.0 6.0 0.00 0.00 0.00 59 1009.0
20210725174513 86 185 0.0 2.0 0.00 0.00 0.00 59 1009.1
20210725173007 87 291 2.0 7.0 0.00 0.00 0.00 55 1009.2
20210725171532 85 284 0.0 4.0 0.00 0.00 0.00 59 1009.3
20210725170010 84 309 0.0 5.0 0.00 0.00 0.00 61 1009.5
20210725164502 85 288 0.0 4.0 0.00 0.00 0.00 60 1009.7
20210725163005 84 288 0.0 6.0 0.00 0.00 0.00 61 1009.8
20210725160228 84 260 0.0 9.0 0.00 0.00 0.00 61 1009.8
20210725154731 83 46 0.0 5.0 0.00 0.00 0.00 63 1009.7
20210725153104 82 271 1.0 5.0 0.00 0.00 0.00 65 1009.7
20210725151624 80 250 0.0 1.0 0.00 0.00 0.00 66 1009.8
20210725150255 79 265 0.0 4.0 0.00 0.00 0.00 69 1010.1
20210725144645 79 286 0.0 4.0 0.00 0.00 0.00 70 1010.2
20210725143115 78 277 0.0 4.0 0.00 0.00 0.00 72 1010.2
20210725141619 77 283 0.0 5.0 0.00 0.00 0.00 72 1010.3
20210725140136 76 311 0.0 1.0 0.00 0.00 0.00 75 1010.4
20210725134714 75 317 0.0 2.0 0.00 0.00 0.00 78 1010.8
20210725133113 74 355 0.0 1.0 0.00 0.00 0.00 79 1010.8
20210725131617 73 263 0.0 3.0 0.00 0.00 0.00 79 1010.9
20210725130240 73 121 0.0 0.0 0.00 0.00 0.00 80 1010.9
20210725124651 73 279 0.0 1.0 0.00 0.00 0.00 80 1011.0
20210725123232 72 286 0.0 5.0 0.00 0.00 0.00 80 1010.9
20210725121659 72 121 0.0 1.0 0.00 0.00 0.00 79 1011.0
20210725120115 72 121 0.0 1.0 0.00 0.00 0.00 80 1011.1
20210725114631 71 121 0.0 0.0 0.00 0.00 0.00 80 1011.2
20210725113134 70 132 0.0 0.0 0.00 0.00 0.00 80 1011.1
20210725111621 70 132 0.0 0.0 0.00 0.00 0.00 80 1011.1
20210725110158 70 132 0.0 1.0 0.00 0.00 0.00 80 1011.3
20210725104553 70 132 0.0 1.0 0.00 0.00 0.00 80 1011.1
20210725103152 70 132 0.0 0.0 0.00 0.00 0.00 80 1011.1
20210725101623 70 132 0.0 3.0 0.00 0.00 0.00 79 1011.0
20210725100051 70 138 0.0 0.0 0.00 0.00 0.00 78 1010.8
20210725094604 70 138 0.0 0.0 0.00 0.00 0.00 78 1011.0
20210725093117 70 153 0.0 1.0 0.00 0.00 0.00 78 1011.2
20210725091634 70 207 0.0 0.0 0.00 0.00 0.00 78 1011.0
20210725090119 70 211 0.0 2.0 0.00 0.00 0.00 78 1010.9
20210725084613 70 141 0.0 2.0 0.00 0.00 0.00 78 1011.3
20210725083105 70 207 0.0 0.0 0.00 0.00 0.00 78 1011.4
20210725081617 70 280 0.0 4.0 0.00 0.00 0.00 78 1011.4
20210725080120 70 19 0.0 0.0 0.00 0.00 0.00 78 1011.9
20210725074559 70 11 0.0 1.0 0.00 0.00 0.00 78 1012.1
20210725073100 71 203 0.0 0.0 0.00 0.00 0.00 77 1012.3
20210725071605 72 202 0.0 0.0 0.00 0.00 0.00 74 1012.4
20210725070056 72 205 0.0 2.0 0.00 0.00 0.00 72 1012.4
20210725064558 72 273 0.0 0.0 0.00 0.00 0.00 71 1012.6
20210725063037 73 273 0.0 1.0 0.00 0.00 0.00 69 1012.7
20210725061537 74 333 0.0 3.0 0.00 0.00 0.00 66 1012.9
20210725060105 74 288 0.0 3.0 0.00 0.00 0.00 60 1012.9
20210725054602 74 153 0.0 0.0 0.00 0.00 0.00 60 1013.1
20210725053023 74 153 0.0 0.0 0.00 0.00 0.00 60 1013.2
20210725051600 74 153 0.0 0.0 0.00 0.00 0.00 59 1013.5
20210725050050 74 136 0.0 1.0 0.00 0.00 0.00 60 1013.4
20210725044534 74 136 0.0 1.0 0.00 0.00 0.00 62 1013.5
20210725043020 75 135 0.0 0.0 0.00 0.00 0.00 64 1013.5
20210725041531 75 140 0.0 0.0 0.00 0.00 0.00 65 1013.6
20210725040019 75 140 0.0 1.0 0.00 0.00 0.00 65 1013.5
20210725034606 75 140 0.0 1.0 0.00 0.00 0.00 64 1013.7
20210725033055 75 140 0.0 0.0 0.00 0.00 0.00 63 1013.5
20210725031525 75 140 0.0 1.0 0.00 0.00 0.00 62 1013.5
20210725030022 76 161 0.0 0.0 0.00 0.00 0.00 61 1013.9
20210725024544 76 161 0.0 1.0 0.00 0.00 0.00 60 1013.9
20210725023047 76 152 0.0 1.0 0.00 0.00 0.00 58 1014.0
20210725021542 76 152 0.0 0.0 0.00 0.00 0.00 57 1013.9
20210725020013 76 152 0.0 0.0 0.00 0.00 0.00 55 1014.0
20210725014514 77 152 0.0 1.0 0.00 0.00 0.00 54 1014.1
20210725013047 77 152 0.0 0.0 0.00 0.00 0.00 53 1014.0
20210725011518 78 153 0.0 1.0 0.00 0.00 0.00 52 1013.9
20210725010019 78 240 0.0 2.0 0.00 0.00 0.00 52 1013.7
20210725004527 79 244 0.0 1.0 0.00 0.00 0.00 51 1013.7
20210725003035 79 278 0.0 1.0 0.00 0.00 0.00 51 1013.8